首页
METAR-TAF:

METAR-TAF

机场 :

Apalachicola, 佛罗里达州, 美国

纬度: 29-43-37N, 经度: 085-01-29W, 海拔: 6米

当前天气观测

该预报发布于31分钟前的05:53 UTC
风速3节,风向北转西北
温度 22°C
湿度 94%
气压 1018 hPa
能見度: 14.5公里
天空无云

METAR: KAAF 270553Z AUTO 33003KT 9SM CLR 22/21 A3007 RMK AO2 SLP183 T02220206 10283 20211 58005 $

时间: 02:24 (06:24 UTC)


TAF: 丢失

超过4000个机场的气象观测和天气预报(METAR&TAF报告)。

可查询的气象台以黄色和红色小点在地图上表示。

将鼠标移到小点上方,可查看气象台名称。

然后点击查看天气观测和预报。

如需切换地图:点击带黑十字的绿色按钮放大地图;点击带横线的绿色按钮缩小地图;或者点击绿色箭头查看邻近地区的地图。


METAR-TAF: